Time;durP1;ratioP1;P1;durP2;ratioP2;P2;SDS_P1;SDS_P2;PMS_P1;PMS_P2;Temp;Humidity;BMP_temperature;BMP_pressure;BME280_temperature;BME280_humidity;BME280_pressure;Samples;Min_cycle;Max_cycle;Signal;HPM_P1;HPM_P2
2022/09/13 00:00:40;;;;;;;10.70;3.42;;;21.70;99.90;;;21.13;100.00;100343.38;5248088;22;20070;-74
2022/09/13 00:02:41;;;;;;;6.75;3.40;;;21.70;99.90;;;21.27;100.00;100365.41;5222372;22;20366;-74
2022/09/13 00:04:42;;;;;;;7.47;3.45;;;21.70;99.90;;;21.30;100.00;100364.94;5248320;22;20066;-74
2022/09/13 00:06:43;;;;;;;6.88;3.55;;;21.80;99.90;;;21.32;100.00;100357.50;5250100;22;19999;-74
2022/09/13 00:08:44;;;;;;;4.70;3.25;;;21.80;99.90;;;21.23;100.00;100353.53;5248528;22;20014;-74
2022/09/13 00:10:46;;;;;;;10.18;3.20;;;21.80;99.90;;;21.42;100.00;100363.88;5248387;22;20010;-74
2022/09/13 00:12:48;;;;;;;6.78;3.35;;;21.80;99.90;;;21.33;100.00;100359.94;5248572;22;20349;-74
2022/09/13 00:14:49;;;;;;;5.45;3.20;;;21.90;99.90;;;21.54;100.00;100353.13;5249499;22;20002;-74
2022/09/13 00:16:50;;;;;;;7.30;3.05;;;21.90;99.90;;;21.57;100.00;100363.38;5250139;22;20021;-74
2022/09/13 00:18:52;;;;;;;6.10;2.78;;;22.00;99.90;;;21.46;100.00;100353.50;5249838;22;20003;-74
2022/09/13 00:21:09;;;;;;;8.48;2.88;;;22.00;99.90;;;21.56;100.00;100348.34;5248364;22;20068;-74
2022/09/13 00:23:11;;;;;;;7.07;3.22;;;22.00;99.90;;;21.49;100.00;100321.63;5249965;22;19999;-74
2022/09/13 00:25:12;;;;;;;9.68;3.13;;;22.10;99.90;;;21.54;100.00;100318.22;5249751;22;19998;-74
2022/09/13 00:27:13;;;;;;;7.72;3.53;;;22.10;99.90;;;21.63;100.00;100338.28;5248647;22;20393;-74
2022/09/13 00:29:14;;;;;;;6.65;2.97;;;22.10;99.90;;;21.57;100.00;100319.63;5249192;22;20006;-74
2022/09/13 00:31:16;;;;;;;7.32;3.55;;;22.20;99.90;;;21.62;99.20;100328.63;5249822;22;20052;-74
2022/09/13 00:33:16;;;;;;;4.85;3.00;;;22.20;99.90;;;21.67;99.97;100328.72;5252894;22;20029;-75
2022/09/13 00:35:18;;;;;;;13.50;3.13;;;22.20;99.90;;;21.68;100.00;100327.66;5249900;22;20011;-74
2022/09/13 00:37:19;;;;;;;6.43;2.95;;;22.20;99.90;;;21.71;100.00;100331.72;5277714;22;20086;-74
2022/09/13 00:39:20;;;;;;;8.50;3.00;;;22.20;99.90;;;21.51;100.00;100305.28;5250030;22;20007;-74
2022/09/13 00:41:21;;;;;;;9.70;3.22;;;22.10;99.90;;;21.50;100.00;100301.00;5277453;22;20006;-74
2022/09/13 00:43:50;;;;;;;5.28;3.10;;;22.10;99.90;;;21.56;100.00;100324.19;5277830;22;20077;-74
2022/09/13 00:45:51;;;;;;;7.85;3.72;;;22.10;99.90;;;21.39;100.00;100321.41;5277111;22;19998;-75
2022/09/13 00:48:04;;;;;;;7.45;3.28;;;22.00;99.90;;;21.34;100.00;100329.38;5250075;22;20005;-74
2022/09/13 00:50:11;;;;;;;8.23;3.07;;;22.00;99.90;;;21.41;100.00;100332.72;5277504;22;19998;-74
2022/09/13 00:52:19;;;;;;;8.55;3.08;;;21.90;99.90;;;21.33;100.00;100329.59;5277570;22;20002;-74
2022/09/13 00:54:25;;;;;;;9.32;3.13;;;21.80;99.90;;;21.16;100.00;100313.41;5224468;22;19999;-74
2022/09/13 00:56:44;;;;;;;5.93;2.90;;;21.80;99.90;;;21.17;100.00;100328.47;5249928;22;20003;-74
2022/09/13 00:59:06;;;;;;;6.38;3.03;;;21.70;99.90;;;21.05;100.00;100324.13;5277455;22;20029;-74
2022/09/13 01:01:11;;;;;;;8.82;3.33;;;21.60;99.90;;;20.80;100.00;100314.44;5276952;22;20002;-74
2022/09/13 01:03:15;;;;;;;7.15;3.17;;;21.50;99.90;;;20.81;100.00;100332.19;5249778;22;20003;-74
2022/09/13 01:05:19;;;;;;;9.35;3.67;;;21.40;99.90;;;20.64;100.00;100317.81;5250005;22;20054;-74
2022/09/13 01:07:21;;;;;;;8.70;3.33;;;21.40;99.90;;;20.58;100.00;100329.47;5250011;22;20006;-74
2022/09/13 01:09:23;;;;;;;8.63;4.00;;;21.30;99.90;;;20.46;100.00;100317.13;5249789;22;20003;-74
2022/09/13 01:11:46;;;;;;;7.45;4.32;;;21.20;99.90;;;20.55;100.00;100351.34;5277197;22;20006;-74
2022/09/13 01:13:47;;;;;;;8.55;3.10;;;21.20;99.90;;;20.39;100.00;100336.78;5276103;22;20006;-74
2022/09/13 01:15:48;;;;;;;7.25;3.90;;;21.10;99.90;;;20.42;100.00;100341.69;5276905;22;20037;-74
2022/09/13 01:17:51;;;;;;;7.53;3.10;;;21.10;99.90;;;20.49;100.00;100352.28;5249506;22;20003;-74
2022/09/13 01:19:52;;;;;;;5.85;3.10;;;21.10;99.90;;;20.34;100.00;100333.97;5249688;22;20442;-74
2022/09/13 01:22:29;;;;;;;6.55;3.40;;;21.00;99.90;;;20.40;100.00;100337.56;5277140;22;20054;-74
2022/09/13 01:25:30;;;;;;;9.38;3.85;;;21.00;99.90;;;20.32;100.00;100332.56;5277162;22;19999;-75
2022/09/13 01:28:14;;;;;;;9.15;4.10;;;20.90;99.90;;;20.19;100.00;100324.72;5194013;22;20003;-74
2022/09/13 01:30:36;;;;;;;6.18;3.30;;;20.80;99.90;;;20.04;100.00;100317.06;5276671;22;20007;-74
2022/09/13 01:33:11;;;;;;;7.25;4.10;;;20.80;99.90;;;20.11;100.00;100338.41;5252516;22;20054;-74
2022/09/13 01:35:40;;;;;;;9.25;4.55;;;20.70;99.90;;;20.03;100.00;100336.88;5249289;22;20102;-74
2022/09/13 01:38:40;;;;;;;11.57;3.50;;;20.60;99.90;;;19.96;100.00;100338.00;5225540;22;20435;-75
2022/09/13 01:41:34;;;;;;;8.52;3.75;;;20.60;99.90;;;19.91;100.00;100330.66;5248680;22;20078;-74
2022/09/13 01:44:02;;;;;;;7.60;3.92;;;20.50;99.90;;;19.75;100.00;100297.28;5245013;22;20030;-74
2022/09/13 01:46:17;;;;;;;9.82;4.80;;;20.40;99.90;;;19.68;100.00;100279.72;5252025;22;20061;-75
2022/09/13 01:48:53;;;;;;;6.78;3.97;;;20.40;99.90;;;19.82;100.00;100302.56;5251368;22;20002;-74
2022/09/13 01:51:25;;;;;;;6.85;3.35;;;20.40;99.90;;;19.71;100.00;100279.25;5277238;22;20002;-75
2022/09/13 01:53:54;;;;;;;5.32;3.58;;;20.40;99.90;;;19.68;100.00;100275.16;5236505;22;20014;-74
2022/09/13 01:56:12;;;;;;;7.13;4.50;;;20.30;99.90;;;19.74;100.00;100279.59;5250885;22;20003;-74
2022/09/13 03:17:02;;;;;;;;;;;;;;;;;;;;;
2022/09/13 04:40:04;;;;;;;;;;;;;;;;;;;;;
2022/09/13 04:56:31;;;;;;;;;;;;;;;;;;;;;
2022/09/13 05:06:50;;;;;;;;;;;;;;;;;;;;;
2022/09/13 05:23:58;;;;;;;;;;;;;;;;;;;;;
2022/09/13 06:24:22;;;;;;;5.28;2.75;;;20.00;99.90;;;19.33;100.00;100116.34;4940791;23;20338;-74
2022/09/13 06:26:26;;;;;;;4.53;2.90;;;20.00;99.90;;;19.43;100.00;100127.34;5003653;23;20018;-74
2022/09/13 06:28:27;;;;;;;6.38;2.95;;;20.00;99.90;;;19.45;100.00;100124.41;5112019;23;20432;-74
2022/09/13 06:30:28;;;;;;;4.00;2.33;;;20.10;99.90;;;19.46;100.00;100126.88;5129682;22;20048;-74
2022/09/13 06:32:30;;;;;;;7.15;3.42;;;20.10;99.90;;;19.47;100.00;100117.81;5276544;22;20028;-74
2022/09/13 06:34:31;;;;;;;6.75;3.10;;;20.10;99.90;;;19.61;100.00;100139.81;5276569;22;20003;-74
2022/09/13 06:36:32;;;;;;;4.85;3.00;;;20.20;99.90;;;19.56;100.00;100124.44;5248776;22;20084;-74
2022/09/13 06:38:33;;;;;;;5.70;3.78;;;20.20;99.90;;;19.62;100.00;100128.88;5276545;22;20376;-74
2022/09/13 06:40:34;;;;;;;5.38;3.17;;;20.30;99.90;;;19.57;100.00;100123.41;5276378;22;20002;-75
2022/09/13 06:42:35;;;;;;;6.32;2.83;;;20.30;99.90;;;19.76;100.00;100154.41;5276727;22;20030;-74
2022/09/13 06:44:36;;;;;;;4.78;3.17;;;20.30;99.90;;;19.62;100.00;100123.53;5276179;22;20002;-74
2022/09/13 06:46:37;;;;;;;4.35;3.20;;;20.30;99.90;;;19.79;100.00;100145.94;5276463;22;20418;-74
2022/09/13 06:48:41;;;;;;;8.25;2.72;;;20.30;99.90;;;19.69;100.00;100128.78;5249291;22;20494;-74
2022/09/13 06:50:43;;;;;;;5.10;3.00;;;20.40;99.90;;;19.77;100.00;100142.66;5276436;22;20006;-74
2022/09/13 06:52:44;;;;;;;5.45;2.47;;;20.40;99.90;;;19.80;100.00;100139.50;5249124;22;20334;-74
2022/09/13 06:54:45;;;;;;;6.65;2.92;;;20.40;99.90;;;19.75;100.00;100123.34;5276397;22;20009;-74
2022/09/13 06:56:46;;;;;;;4.57;2.78;;;20.50;99.90;;;19.89;100.00;100143.47;5276365;22;20343;-74
2022/09/13 06:58:50;;;;;;;14.70;4.03;;;20.50;99.90;;;19.87;100.00;100140.22;5248834;22;20003;-74
2022/09/13 07:00:51;;;;;;;5.35;2.70;;;20.50;99.90;;;19.90;100.00;100138.94;5275844;22;20075;-74
2022/09/13 07:02:52;;;;;;;7.20;3.72;;;20.50;99.90;;;19.92;100.00;100138.72;5223121;22;20026;-74
2022/09/13 07:04:53;;;;;;;5.03;2.80;;;20.50;99.90;;;19.91;100.00;100129.06;5276345;22;19999;-74
2022/09/13 07:06:54;;;;;;;6.10;2.80;;;20.60;99.90;;;19.98;100.00;100133.25;5276332;22;20009;-74
2022/09/13 07:08:57;;;;;;;5.40;2.67;;;20.60;99.90;;;19.93;100.00;100127.78;5248726;22;20339;-75
2022/09/13 07:10:58;;;;;;;4.38;2.42;;;20.60;99.90;;;20.03;100.00;100133.38;5249063;22;20003;-74
2022/09/13 07:12:59;;;;;;;8.63;3.92;;;20.70;99.90;;;20.11;100.00;100135.69;5276300;22;20006;-74
2022/09/13 07:15:00;;;;;;;12.98;3.22;;;20.80;99.90;;;20.21;100.00;100135.13;5275967;22;20003;-74
2022/09/13 07:17:01;;;;;;;4.13;2.50;;;20.80;99.90;;;20.28;100.00;100136.66;5276236;22;20059;-74
2022/09/13 07:19:11;;;;;;;5.40;2.35;;;20.90;99.90;;;20.29;100.00;100124.91;5222664;22;20007;-74
2022/09/13 07:21:12;;;;;;;3.42;2.00;;;21.00;99.90;;;20.24;100.00;100118.59;5250215;22;20075;-74
2022/09/13 07:23:13;;;;;;;4.78;2.50;;;21.00;99.90;;;20.29;100.00;100126.75;5276326;22;20414;-75
2022/09/13 07:25:14;;;;;;;10.52;3.47;;;21.00;99.90;;;20.38;100.00;100147.59;5248565;22;19999;-74
2022/09/13 07:27:15;;;;;;;7.95;3.30;;;21.00;99.90;;;20.34;100.00;100146.44;5248656;22;20106;-74
2022/09/13 07:29:22;;;;;;;7.90;2.88;;;21.00;99.90;;;20.38;100.00;100155.66;5275960;22;20002;-74
2022/09/13 07:31:30;;;;;;;10.23;2.28;;;21.00;99.90;;;20.58;100.00;100179.38;5249308;22;20003;-74
2022/09/13 07:33:31;;;;;;;7.65;2.10;;;21.10;99.90;;;20.43;100.00;100144.22;5248473;22;20378;-75
2022/09/13 07:35:32;;;;;;;3.67;1.85;;;21.20;99.90;;;20.54;100.00;100156.81;5276056;22;20002;-74
2022/09/13 07:37:32;;;;;;;3.70;1.92;;;21.20;99.90;;;20.64;100.00;100162.38;5248779;22;20011;-74
2022/09/13 07:39:33;;;;;;;5.65;2.40;;;21.30;99.90;;;20.71;100.00;100163.06;5275713;22;20002;-74
2022/09/13 07:41:35;;;;;;;4.22;1.77;;;21.30;99.90;;;20.77;100.00;100154.06;5275945;22;20060;-74
2022/09/13 07:43:37;;;;;;;3.95;1.73;;;21.40;99.90;;;20.84;100.00;100154.78;5248641;22;20016;-74
2022/09/13 07:45:38;;;;;;;2.85;1.73;;;21.50;99.90;;;21.02;100.00;100175.25;5248188;22;20380;-74
2022/09/13 07:47:39;;;;;;;4.22;1.80;;;21.50;99.90;;;21.01;100.00;100157.50;5248605;22;20003;-74
2022/09/13 07:49:39;;;;;;;7.20;2.67;;;21.60;99.90;;;21.25;100.00;100185.09;5274504;22;20010;-74
2022/09/13 07:51:42;;;;;;;6.97;3.17;;;21.70;99.90;;;21.24;100.00;100170.84;5276008;22;20007;-74
2022/09/13 07:53:45;;;;;;;7.50;2.53;;;21.80;99.90;;;21.33;100.00;100168.59;5248809;22;20006;-74
2022/09/13 07:55:46;;;;;;;4.25;2.53;;;21.90;99.90;;;21.37;100.00;100157.16;5275965;22;20009;-74
2022/09/13 07:57:46;;;;;;;6.03;2.60;;;21.90;99.90;;;21.48;100.00;100150.09;5248664;22;20010;-74
2022/09/13 07:59:47;;;;;;;4.90;2.33;;;22.00;99.90;;;21.67;100.00;100161.44;5247940;22;20007;-74
2022/09/13 08:01:50;;;;;;;5.85;2.67;;;22.10;99.90;;;21.77;100.00;100161.63;5248293;22;20007;-74
2022/09/13 08:03:58;;;;;;;7.75;3.10;;;22.30;99.90;;;21.90;100.00;100162.13;5248363;22;20006;-74
2022/09/13 08:05:59;;;;;;;5.68;2.88;;;22.40;99.90;;;22.07;100.00;100164.84;5248803;22;19999;-75
2022/09/13 08:08:00;;;;;;;6.22;3.30;;;22.60;99.90;;;22.19;100.00;100152.09;5248686;22;20003;-74
2022/09/13 08:10:01;;;;;;;6.05;2.60;;;22.70;99.90;;;22.47;100.00;100167.31;5275969;22;20002;-74
2022/09/13 08:12:02;;;;;;;4.30;2.25;;;22.90;99.90;;;22.47;100.00;100146.63;5248638;22;20003;-74
2022/09/13 08:14:05;;;;;;;4.03;2.20;;;23.10;99.90;;;22.71;100.00;100157.97;5275666;22;20003;-74
2022/09/13 08:16:06;;;;;;;5.53;2.28;;;23.20;99.90;;;22.82;100.00;100146.28;5275951;22;20002;-74
2022/09/13 08:18:07;;;;;;;6.57;3.25;;;23.40;99.90;;;23.03;100.00;100156.22;5276252;22;20060;-74
2022/09/13 08:20:08;;;;;;;7.18;2.90;;;23.50;99.90;;;23.24;100.00;100167.25;5222076;22;20018;-75
2022/09/13 08:22:09;;;;;;;10.57;3.88;;;23.70;99.90;;;23.44;100.00;100180.94;5248430;22;20007;-74
2022/09/13 08:24:28;;;;;;;7.13;2.90;;;23.90;99.90;;;23.50;98.58;100161.91;5248045;22;20096;-74
2022/09/13 08:26:31;;;;;;;8.93;3.13;;;24.10;99.90;;;23.71;99.03;100189.00;5248336;22;20003;-74
2022/09/13 08:28:35;;;;;;;7.40;2.17;;;24.20;99.90;;;23.61;97.99;100168.19;5222282;22;20003;-74
2022/09/13 08:30:36;;;;;;;;;;;24.30;99.90;;;23.56;95.19;100160.06;5248503;22;20006;-74
2022/09/13 08:32:37;;;;;;;8.15;3.17;;;24.30;99.90;;;23.68;96.59;100168.78;5275824;22;19924;-74
2022/09/13 08:34:38;;;;;;;5.00;2.53;;;24.40;99.90;;;23.84;97.09;100188.56;5275852;22;20007;-74
2022/09/13 08:36:40;;;;;;;4.05;2.60;;;24.40;99.90;;;23.64;96.20;100181.13;5275643;22;20041;-74
2022/09/13 08:38:49;;;;;;;9.07;2.63;;;24.40;99.90;;;23.69;95.33;100183.84;5275680;22;20002;-74
2022/09/13 08:41:04;;;;;;;6.20;2.90;;;24.40;99.90;;;23.77;95.19;100186.13;5248350;22;20003;-74
2022/09/13 08:43:48;;;;;;;6.28;2.78;;;24.40;99.90;;;23.91;95.08;100195.38;5275731;22;20035;-74
2022/09/13 08:46:09;;;;;;;8.30;2.75;;;24.50;99.90;;;23.93;95.78;100189.72;5247823;22;20474;-74
2022/09/13 08:48:17;;;;;;;6.03;2.15;;;24.50;99.90;;;23.86;95.98;100170.28;5275898;22;20445;-74
2022/09/13 08:50:22;;;;;;;3.85;1.77;;;24.60;99.90;;;23.77;95.96;100161.88;5223069;22;20011;-74
2022/09/13 08:52:44;;;;;;;8.48;3.25;;;24.60;99.90;;;23.92;94.69;100186.25;5250356;22;20010;-74
2022/09/13 08:54:45;;;;;;;4.05;2.45;;;24.60;99.90;;;24.02;95.70;100186.31;5251198;22;20047;-74
2022/09/13 08:57:11;;;;;;;5.90;2.20;;;24.70;99.90;;;24.06;94.64;100176.66;5277393;22;20006;-74
2022/09/13 08:59:37;;;;;;;5.50;2.08;;;24.80;99.90;;;24.34;92.73;100182.81;5276965;22;20007;-74
2022/09/13 09:02:07;;;;;;;5.78;1.90;;;24.90;99.90;;;24.50;92.90;100192.59;5249472;22;20328;-74
2022/09/13 09:04:27;;;;;;;2.55;1.75;;;25.10;99.90;;;24.56;92.40;100191.56;5277509;22;20027;-74
2022/09/13 09:06:28;;;;;;;5.93;2.10;;;25.20;99.90;;;24.48;92.02;100167.78;5250379;22;20026;-74
2022/09/13 09:08:39;;;;;;;5.70;2.40;;;25.30;99.90;;;24.73;92.22;100165.22;5277200;22;20006;-74
2022/09/13 09:10:47;;;;;;;4.35;2.10;;;25.40;99.90;;;24.96;90.00;100161.31;5277451;22;20003;-74
2022/09/13 09:13:11;;;;;;;4.57;2.10;;;25.60;99.90;;;25.12;89.90;100152.19;5277290;22;20064;-74
2022/09/13 09:15:20;;;;;;;5.70;2.22;;;25.80;99.90;;;25.25;88.56;100143.59;5277011;22;20009;-74
2022/09/13 09:17:27;;;;;;;4.10;2.30;;;26.00;99.90;;;25.40;87.83;100150.91;5250415;22;20002;-74
2022/09/13 09:19:59;;;;;;;4.05;1.90;;;26.10;99.90;;;25.40;87.96;100148.19;5277203;22;20052;-74
2022/09/13 09:22:06;;;;;;;7.38;1.85;;;26.20;99.90;;;25.27;87.89;100136.84;5249566;22;20014;-75
2022/09/13 09:24:16;;;;;;;8.25;2.15;;;26.10;99.90;;;25.16;89.11;100143.28;5250037;22;20065;-74
2022/09/13 09:26:28;;;;;;;3.78;1.83;;;26.10;99.90;;;25.03;88.97;100138.38;5250708;22;20025;-74
2022/09/13 09:28:30;;;;;;;4.95;2.40;;;26.00;99.90;;;24.87;89.64;100125.13;5224318;22;20003;-74
2022/09/13 09:31:01;;;;;;;3.58;2.20;;;25.80;99.90;;;24.87;91.02;100125.13;5276800;22;19998;-74
2022/09/13 09:33:37;;;;;;;5.18;2.38;;;25.70;99.90;;;25.03;87.48;100135.69;5253508;22;19999;-74
2022/09/13 09:35:53;;;;;;;6.88;3.20;;;25.80;99.90;;;25.17;87.72;100131.44;5276771;22;20029;-74
2022/09/13 09:38:26;;;;;;;7.88;2.95;;;26.00;99.90;;;25.45;86.58;100148.22;5251750;22;20082;-74
2022/09/13 09:40:28;;;;;;;4.82;2.30;;;26.20;99.90;;;25.57;86.65;100143.38;5187428;22;20006;-74
2022/09/13 09:42:45;;;;;;;6.95;2.88;;;26.30;99.90;;;25.60;84.10;100126.63;5277617;22;20005;-74
2022/09/13 09:44:56;;;;;;;5.38;2.47;;;26.40;99.90;;;25.56;84.97;100120.19;5223342;22;20003;-75
2022/09/13 09:47:11;;;;;;;9.88;3.03;;;26.40;99.90;;;25.51;84.41;100137.16;5277386;22;19999;-74
2022/09/13 09:51:45;;;;;;;7.50;2.33;;;26.20;99.90;;;25.22;85.73;100126.03;5276870;22;20013;-75
2022/09/13 09:53:51;;;;;;;8.10;2.83;;;26.20;99.90;;;25.22;85.93;100130.63;5277032;22;20022;-75
2022/09/13 09:56:15;;;;;;;9.98;2.75;;;26.10;99.90;;;25.29;87.89;100137.41;5249850;22;20064;-74
2022/09/13 09:58:17;;;;;;;9.55;2.50;;;26.00;99.90;;;25.35;88.09;100132.00;5251496;22;20026;-74
2022/09/13 10:00:22;;;;;;;6.32;2.30;;;26.00;99.90;;;25.57;86.41;100143.38;5248867;22;20006;-75
2022/09/13 10:02:23;;;;;;;7.70;3.10;;;26.10;99.90;;;25.56;84.57;100125.56;5248736;22;19999;-74
2022/09/13 10:04:25;;;;;;;6.55;2.42;;;26.30;99.90;;;25.74;84.07;100128.56;5249240;22;20033;-75
2022/09/13 10:06:27;;;;;;;7.63;2.20;;;26.40;99.90;;;25.95;83.46;100133.94;5275885;22;20002;-74
2022/09/13 10:08:33;;;;;;;10.13;2.67;;;26.60;99.90;;;26.07;83.59;100105.56;5249240;22;20416;-74
2022/09/13 10:10:44;;;;;;;5.03;2.28;;;26.80;99.90;;;26.36;82.47;100130.13;5249512;22;20030;-75
2022/09/13 10:12:51;;;;;;;8.73;3.00;;;27.00;99.90;;;26.26;78.73;100103.91;5276795;22;20086;-75
2022/09/13 10:15:01;;;;;;;9.07;2.55;;;27.10;99.90;;;26.33;79.98;100119.84;5249197;22;20475;-74
2022/09/13 10:17:14;;;;;;;6.47;1.83;;;27.10;99.90;;;26.36;78.86;100113.91;5248890;22;20067;-75
2022/09/13 10:19:27;;;;;;;11.73;3.10;;;27.20;99.90;;;26.47;79.12;100123.59;5248843;22;20477;-75
2022/09/13 10:21:28;;;;;;;6.80;2.70;;;27.20;99.90;;;26.50;78.73;100109.53;5276873;22;20030;-75
2022/09/13 10:23:35;;;;;;;7.03;2.60;;;27.30;99.90;;;26.44;78.83;100105.22;5249236;22;20006;-75
2022/09/13 10:25:37;;;;;;;6.10;2.63;;;27.30;99.90;;;26.44;79.34;100098.97;5276675;22;20421;-75
2022/09/13 10:27:46;;;;;;;7.90;2.38;;;27.30;99.90;;;26.60;79.96;100119.50;5248854;22;20031;-75
2022/09/13 10:29:51;;;;;;;5.20;2.17;;;27.30;99.90;;;26.52;79.54;100099.25;5276287;22;20006;-75
2022/09/13 10:31:54;;;;;;;6.30;2.28;;;27.30;99.90;;;26.63;80.39;100113.53;5249694;22;20003;-75
2022/09/13 10:34:11;;;;;;;10.13;2.90;;;27.40;99.90;;;26.55;79.55;100096.00;5223703;22;20007;-74
2022/09/13 10:36:24;;;;;;;8.77;2.75;;;27.40;99.90;;;26.69;78.26;100099.72;5250268;22;20097;-75
2022/09/13 10:38:36;;;;;;;10.07;2.47;;;27.50;99.90;;;26.73;77.40;100078.31;5249821;22;20013;-74
2022/09/13 10:40:37;;;;;;;5.35;2.30;;;27.50;99.90;;;26.85;78.97;100079.63;5249387;22;20011;-74
2022/09/13 10:42:38;;;;;;;7.43;3.15;;;27.60;99.90;;;26.92;77.40;100068.50;5248883;22;20037;-75
2022/09/13 10:44:56;;;;;;;8.63;2.40;;;27.80;99.90;;;27.04;76.99;100087.09;5248558;22;20006;-75
2022/09/13 10:47:03;;;;;;;9.45;2.90;;;27.70;99.90;;;26.98;74.80;100066.56;5225250;22;19999;-75
2022/09/13 10:49:04;;;;;;;10.82;3.63;;;27.80;99.90;;;27.07;74.71;100057.56;5249441;22;20504;-75
2022/09/13 10:51:20;;;;;;;7.05;2.47;;;27.90;99.90;;;27.15;74.60;100065.09;5248831;22;20007;-75
2022/09/13 10:53:39;;;;;;;9.27;3.65;;;27.90;99.90;;;27.12;74.30;100040.50;5225777;22;20007;-75
2022/09/13 10:55:43;;;;;;;7.07;2.88;;;27.90;99.90;;;27.12;74.82;100054.81;5276470;22;20081;-75
2022/09/13 10:57:46;;;;;;;10.82;3.05;;;27.90;99.90;;;27.20;74.46;100069.69;5223627;22;20009;-75
2022/09/13 10:59:53;;;;;;;12.63;4.85;;;27.90;99.90;;;27.25;74.50;100059.63;5248677;22;20007;-75
2022/09/13 11:02:48;;;;;;;10.40;4.22;;;27.90;99.90;;;27.18;74.34;100061.81;5248582;22;20006;-74
2022/09/13 11:05:36;;;;;;;13.45;4.32;;;27.90;99.90;;;27.16;71.88;100055.88;5276359;22;20340;-75
2022/09/13 11:08:07;;;;;;;8.23;3.80;;;27.90;99.90;;;27.33;71.26;100060.91;5276453;22;20012;-74
2022/09/13 11:10:31;;;;;;;12.32;4.38;;;27.90;99.90;;;27.77;73.28;100050.81;5276369;22;20384;-74
2022/09/13 11:12:51;;;;;;;15.32;4.80;;;28.20;99.90;;;27.85;68.75;100027.69;5248790;22;20419;-75
2022/09/13 11:15:28;;;;;;;7.15;3.25;;;28.50;99.90;;;28.08;71.89;100045.09;5275948;22;20006;-75
2022/09/13 11:17:46;;;;;;;13.25;3.80;;;28.60;99.90;;;27.99;70.25;100040.28;5146010;23;20111;-75
2022/09/13 11:20:26;;;;;;;12.20;3.35;;;28.70;99.90;;;27.67;72.83;100042.78;5235595;22;20339;-75
2022/09/13 11:22:36;;;;;;;7.72;3.22;;;28.50;99.90;;;27.48;73.51;100041.06;5248556;22;20034;-74
2022/09/13 11:24:57;;;;;;;14.00;3.70;;;28.20;99.90;;;27.40;75.42;100031.59;5248777;22;20077;-74
2022/09/13 11:27:30;;;;;;;12.93;3.75;;;28.10;99.90;;;27.41;73.18;100041.34;5276571;22;20002;-75
2022/09/13 11:30:11;;;;;;;9.18;4.22;;;28.00;99.90;;;27.48;74.36;100045.38;5275803;22;20003;-75
2022/09/13 11:32:52;;;;;;;8.40;5.22;;;28.00;99.90;;;27.61;71.60;100043.91;5255725;22;20002;-74
2022/09/13 11:35:06;;;;;;;13.68;5.53;;;28.10;99.90;;;27.86;71.85;100046.38;5276049;22;20006;-75
2022/09/13 11:37:22;;;;;;;17.30;7.13;;;28.30;99.90;;;28.01;70.70;100034.56;5276204;22;20006;-74
2022/09/13 11:39:42;;;;;;;13.02;6.53;;;28.40;99.90;;;28.15;69.66;100024.69;5250263;22;20029;-75
2022/09/13 11:42:07;;;;;;;15.07;7.32;;;28.60;99.90;;;28.27;70.19;100043.25;5250912;22;20006;-75
2022/09/13 11:44:39;;;;;;;12.23;7.13;;;28.70;99.90;;;28.18;65.09;100037.66;5275963;22;20331;-75
2022/09/13 11:47:11;;;;;;;14.73;7.45;;;28.70;99.90;;;28.00;68.86;100024.81;5248649;22;20014;-75
2022/09/13 11:49:24;;;;;;;15.20;8.07;;;28.70;99.90;;;28.09;68.79;100033.97;5276135;22;20334;-74
2022/09/13 11:51:51;;;;;;;12.35;8.32;;;28.70;99.90;;;28.18;69.72;100029.53;5248651;22;20033;-75
2022/09/13 11:54:26;;;;;;;16.05;8.93;;;28.70;99.90;;;28.19;69.17;100023.00;5250061;22;20077;-75
2022/09/13 11:56:37;;;;;;;16.35;10.07;;;28.90;99.90;;;28.21;66.13;100037.09;5276217;22;20052;-75
2022/09/13 11:59:31;;;;;;;12.15;6.53;;;28.80;99.90;;;28.01;67.84;100026.44;5249548;22;20009;-74
2022/09/13 12:01:41;;;;;;;15.38;9.23;;;28.70;99.90;;;27.91;68.99;100037.38;5227549;22;20489;-75
2022/09/13 12:04:18;;;;;;;16.27;10.07;;;28.50;99.90;;;27.71;70.13;100034.88;5248959;22;20415;-75
2022/09/13 12:06:39;;;;;;;11.38;8.10;;;28.30;99.90;;;27.45;70.94;100008.00;5276188;22;20002;-74
2022/09/13 12:08:51;;;;;;;13.00;9.45;;;28.20;99.90;;;27.48;71.94;100020.16;5248429;22;19998;-75
2022/09/13 12:11:02;;;;;;;12.32;8.07;;;28.20;99.90;;;27.48;72.82;100007.44;5247949;22;20081;-75
2022/09/13 12:13:06;;;;;;;11.88;8.25;;;28.20;99.90;;;27.57;73.31;100004.13;5249628;22;20056;-75
2022/09/13 12:15:19;;;;;;;12.85;9.05;;;28.20;99.90;;;27.79;72.20;100015.28;5248470;22;20040;-75
2022/09/13 12:17:33;;;;;;;17.50;10.77;;;28.30;99.90;;;27.90;71.03;100008.66;5249498;22;20060;-75
2022/09/13 12:19:44;;;;;;;22.20;13.32;;;28.40;99.90;;;28.01;69.73;100018.31;5249381;22;20561;-75
2022/09/13 12:21:48;;;;;;;20.30;13.27;;;28.50;99.90;;;28.14;68.74;100020.34;5248154;22;20015;-75
2022/09/13 12:24:03;;;;;;;17.83;12.23;;;28.70;99.90;;;28.30;69.31;100029.94;5248589;22;20336;-74
2022/09/13 12:26:25;;;;;;;19.73;16.15;;;28.80;99.90;;;28.34;68.17;100013.88;5277291;22;20487;-74
2022/09/13 12:28:52;;;;;;;18.10;15.27;;;28.90;99.90;;;28.40;67.41;100008.09;5225379;22;20094;-75
2022/09/13 12:31:12;;;;;;;21.15;15.15;;;28.90;99.90;;;28.34;68.06;100003.84;5250114;22;20003;-75
2022/09/13 12:33:15;;;;;;;18.15;16.33;;;28.90;99.90;;;28.41;68.55;100015.13;5250442;22;20377;-75
2022/09/13 12:35:56;;;;;;;19.52;15.43;;;28.90;99.90;;;28.36;67.93;99995.41;5224099;22;20038;-74
2022/09/13 12:38:31;;;;;;;23.73;17.73;;;29.00;99.90;;;28.51;68.20;100022.34;5252663;22;20071;-74
2022/09/13 12:40:56;;;;;;;19.17;16.55;;;29.10;99.90;;;28.65;68.83;100022.44;5277513;22;20054;-75
2022/09/13 12:43:16;;;;;;;23.83;16.67;;;29.10;99.90;;;28.76;67.49;100021.22;5277939;22;20024;-75
2022/09/13 12:45:54;;;;;;;19.73;17.63;;;29.30;99.90;;;28.94;67.66;100017.69;5277222;22;20368;-74
2022/09/13 12:48:20;;;;;;;19.25;17.23;;;29.50;99.90;;;29.01;67.41;100013.50;5249631;22;20015;-75
2022/09/13 12:50:45;;;;;;;17.40;15.35;;;29.70;99.90;;;29.20;67.72;100016.19;5277745;22;20059;-74
2022/09/13 12:53:09;;;;;;;24.50;19.50;;;29.80;99.90;;;29.52;65.09;100005.34;5250324;22;20117;-75
2022/09/13 12:55:34;;;;;;;29.27;20.98;;;30.10;99.90;;;29.94;61.64;99995.34;5249674;22;20009;-75
2022/09/13 12:58:15;;;;;;;27.23;21.60;;;30.50;99.90;;;30.40;58.94;99998.00;5277396;22;20079;-74
2022/09/13 13:00:29;;;;;;;170.13;102.28;;;30.80;98.70;;;30.42;59.97;99985.69;5249435;22;20006;-74
2022/09/13 13:02:41;;;;;;;23.63;20.65;;;31.10;99.10;;;30.75;58.66;99980.06;5250155;22;20010;-75
2022/09/13 13:04:42;;;;;;;29.33;20.35;;;31.30;98.30;;;30.64;57.60;99960.44;5225109;22;20343;-75
2022/09/13 13:07:03;;;;;;;27.15;22.25;;;31.50;97.70;;;30.60;57.06;99973.84;5249345;22;20078;-75
2022/09/13 13:09:43;;;;;;;22.25;19.98;;;31.50;97.30;;;30.65;57.81;99957.38;5277288;22;20330;-75
2022/09/13 13:11:47;;;;;;;24.52;20.08;;;31.50;97.50;;;30.69;60.00;99961.13;5226038;22;20011;-75
2022/09/13 13:14:08;;;;;;;23.90;21.17;;;31.60;98.30;;;30.51;57.98;99953.09;5249372;22;20007;-75
2022/09/13 13:16:39;;;;;;;24.98;19.83;;;31.50;97.00;;;30.25;56.44;99944.66;5225257;22;20017;-75
2022/09/13 13:18:50;;;;;;;25.48;20.60;;;31.30;96.30;;;30.09;58.14;99954.25;5249750;22;20007;-75
2022/09/13 13:20:57;;;;;;;25.40;20.45;;;31.00;96.80;;;29.84;58.99;99976.53;5250316;22;20002;-75
2022/09/13 13:23:46;;;;;;;22.13;18.00;;;30.80;97.00;;;29.59;61.94;99965.00;5277229;22;20427;-75
2022/09/13 13:26:04;;;;;;;23.08;19.30;;;30.50;98.20;;;29.39;61.48;99948.25;5253096;22;20009;-75
2022/09/13 13:28:42;;;;;;;26.58;18.30;;;30.30;98.20;;;29.19;62.48;99967.56;5224453;22;20478;-75
2022/09/13 13:30:54;;;;;;;23.98;17.77;;;30.00;98.30;;;29.02;60.08;99949.13;5277142;22;20002;-75